createdAt,value
2019-03-23T00:01:41.544Z,101465.20
2019-03-23T00:04:13.025Z,101458.22
2019-03-23T00:06:44.250Z,101458.86
2019-03-23T00:09:15.608Z,101458.31
2019-03-23T00:11:46.950Z,101457.41
2019-03-23T00:14:18.254Z,101460.87
2019-03-23T00:16:49.514Z,101463.78
2019-03-23T00:19:20.808Z,101467.24
2019-03-23T00:21:53.327Z,101458.97
2019-03-23T00:24:24.618Z,101464.09
2019-03-23T00:26:55.973Z,101458.65
2019-03-23T00:29:27.251Z,101464.08
2019-03-23T00:31:58.597Z,101467.39
2019-03-23T00:34:29.819Z,101466.50
2019-03-23T00:37:01.230Z,101467.61
2019-03-23T00:39:32.485Z,101472.78
2019-03-23T00:42:03.771Z,101468.98
2019-03-23T00:44:35.006Z,101479.61
2019-03-23T00:47:06.351Z,101480.17
2019-03-23T00:49:37.582Z,101480.52
2019-03-23T00:52:08.929Z,101475.27
2019-03-23T00:54:40.161Z,101480.38
2019-03-23T00:57:11.503Z,101482.72
2019-03-23T00:59:42.805Z,101480.78
2019-03-23T01:02:14.251Z,101482.70
2019-03-23T01:04:45.588Z,101479.72
2019-03-23T01:07:29.873Z,101485.31
2019-03-23T01:10:01.170Z,101483.33
2019-03-23T01:12:32.581Z,101478.55
2019-03-23T01:15:05.852Z,101476.53
2019-03-23T01:17:37.289Z,101479.47
2019-03-23T01:20:13.458Z,101484.34
2019-03-23T01:22:44.731Z,101480.86
2019-03-23T01:25:16.034Z,101480.07
2019-03-23T01:27:47.302Z,101477.79
2019-03-23T01:30:19.596Z,101472.40
2019-03-23T01:32:50.964Z,101467.75
2019-03-23T01:35:22.275Z,101467.45
2019-03-23T01:37:53.518Z,101473.10
2019-03-23T01:40:24.883Z,101462.39
2019-03-23T01:42:57.871Z,101466.17
2019-03-23T01:45:29.167Z,101465.91
2019-03-23T01:48:00.439Z,101465.45
2019-03-23T01:50:31.672Z,101463.41
2019-03-23T01:53:02.947Z,101464.63
2019-03-23T01:55:34.176Z,101461.16
2019-03-23T01:58:05.520Z,101469.02
2019-03-23T02:00:38.039Z,101468.30
2019-03-23T02:03:09.523Z,101470.62
2019-03-23T02:05:40.824Z,101472.48
2019-03-23T02:08:12.199Z,101461.55
2019-03-23T02:10:43.432Z,101461.17
2019-03-23T02:13:14.730Z,101458.88
2019-03-23T02:15:46.053Z,101455.93
2019-03-23T02:18:17.381Z,101459.03
2019-03-23T02:20:48.810Z,101455.62
2019-03-23T02:23:21.071Z,101460.13
2019-03-23T02:25:52.414Z,101454.33
2019-03-23T02:28:23.734Z,101453.36
2019-03-23T02:30:55.106Z,101460.24
2019-03-23T02:33:26.338Z,101454.20
2019-03-23T02:35:57.691Z,101461.05
2019-03-23T02:38:30.007Z,101455.48
2019-03-23T02:41:01.249Z,101451.33
2019-03-23T02:43:32.764Z,101451.49
2019-03-23T02:46:04.005Z,101455.41
2019-03-23T02:48:35.285Z,101452.72
2019-03-23T02:51:06.610Z,101447.64
2019-03-23T02:53:37.960Z,101445.60
2019-03-23T02:56:09.202Z,101453.13
2019-03-23T02:58:41.688Z,101456.56
2019-03-23T03:01:12.906Z,101441.84
2019-03-23T03:03:44.259Z,101452.39
2019-03-23T03:06:15.568Z,101450.99
2019-03-23T03:08:46.948Z,101451.24
2019-03-23T03:11:18.256Z,101446.17
2019-03-23T03:13:49.545Z,101444.95
2019-03-23T03:16:20.922Z,101451.08
2019-03-23T03:18:52.257Z,101450.19
2019-03-23T03:21:23.735Z,101454.27
2019-03-23T03:23:55.092Z,101452.39
2019-03-23T03:26:26.405Z,101449.70
2019-03-23T03:28:57.818Z,101457.80
2019-03-23T03:31:29.177Z,101453.21
2019-03-23T03:34:00.590Z,101458.11
2019-03-23T03:36:33.020Z,101454.93
2019-03-23T03:39:05.993Z,101456.48
2019-03-23T03:41:37.670Z,101456.97
2019-03-23T03:44:09.089Z,101460.00
2019-03-23T03:46:40.325Z,101458.36
2019-03-23T03:49:12.906Z,101461.70
2019-03-23T03:51:44.409Z,101461.80
2019-03-23T03:54:15.698Z,101459.09
2019-03-23T03:56:46.967Z,101462.28
2019-03-23T03:59:18.412Z,101450.10
2019-03-23T04:01:55.786Z,101458.44
2019-03-23T04:04:27.194Z,101455.00
2019-03-23T04:06:58.509Z,101468.06
2019-03-23T04:09:29.797Z,101468.06
2019-03-23T04:12:01.232Z,101472.06
2019-03-23T04:14:32.748Z,101471.25
2019-03-23T04:17:06.641Z,101474.91
2019-03-23T04:19:38.012Z,101475.88
2019-03-23T04:22:09.316Z,101477.83
2019-03-23T04:24:40.616Z,101471.69
2019-03-23T04:27:11.884Z,101480.66
2019-03-23T04:29:43.154Z,101477.23
2019-03-23T04:32:14.437Z,101469.39
2019-03-23T04:34:45.668Z,101470.96
2019-03-23T04:37:18.089Z,101467.45
2019-03-23T04:39:49.325Z,101472.50
2019-03-23T04:42:20.700Z,101476.08
2019-03-23T04:44:52.044Z,101469.78
2019-03-23T04:47:23.360Z,101470.10
2019-03-23T04:49:54.632Z,101470.83
2019-03-23T04:52:26.041Z,101470.57
2019-03-23T04:54:57.323Z,101466.80
2019-03-23T04:57:28.657Z,101464.42
2019-03-23T05:00:01.118Z,101473.73
2019-03-23T05:02:32.564Z,101471.35
2019-03-23T05:05:04.874Z,101471.76
2019-03-23T05:07:36.185Z,101475.09
2019-03-23T05:10:10.152Z,101474.92
2019-03-23T05:12:41.454Z,101477.94
2019-03-23T05:15:14.824Z,101475.43
2019-03-23T05:17:46.058Z,101479.17
2019-03-23T05:20:29.593Z,101482.19
2019-03-23T05:23:00.968Z,101484.84
2019-03-23T05:25:34.363Z,101480.07
2019-03-23T05:28:05.746Z,101480.07
2019-03-23T05:30:37.093Z,101484.84
2019-03-23T05:33:08.352Z,101495.81
2019-03-23T05:35:39.685Z,101490.38
2019-03-23T05:38:11.107Z,101491.36
2019-03-23T05:40:42.585Z,101491.50
2019-03-23T05:43:13.822Z,101496.80
2019-03-23T05:45:45.128Z,101494.68
2019-03-23T05:48:16.377Z,101499.92
2019-03-23T05:50:47.729Z,101497.13
2019-03-23T05:53:18.966Z,101505.05
2019-03-23T05:55:50.341Z,101505.23
2019-03-23T05:58:21.596Z,101510.93
2019-03-23T06:00:53.012Z,101511.95
2019-03-23T06:03:24.324Z,101514.48
2019-03-23T06:05:57.665Z,101517.98
2019-03-23T06:08:28.901Z,101514.94
2019-03-23T06:11:00.226Z,101518.09
2019-03-23T06:13:31.459Z,101522.52
2019-03-23T06:16:03.877Z,101530.17
2019-03-23T06:18:35.115Z,101530.98
2019-03-23T06:21:06.488Z,101535.00
2019-03-23T06:23:37.724Z,101535.48
2019-03-23T06:26:09.802Z,101538.00
2019-03-23T06:28:41.080Z,101538.18
2019-03-23T06:31:12.459Z,101543.84
2019-03-23T06:33:44.902Z,101546.81
2019-03-23T06:36:16.225Z,101543.16
2019-03-23T06:38:47.604Z,101540.49
2019-03-23T06:41:19.014Z,101539.39
2019-03-23T06:43:50.315Z,101533.20
2019-03-23T06:46:21.663Z,101540.11
2019-03-23T06:48:52.901Z,101534.80
2019-03-23T06:51:24.203Z,101538.18
2019-03-23T06:53:55.557Z,101540.95
2019-03-23T06:56:26.859Z,101537.75
2019-03-23T06:58:58.222Z,101540.22
2019-03-23T07:01:29.688Z,101539.33
2019-03-23T07:04:00.968Z,101538.20
2019-03-23T07:06:32.272Z,101543.94
2019-03-23T07:09:15.784Z,101546.55
2019-03-23T07:11:40.361Z,101550.64
2019-03-23T07:14:11.576Z,101550.91
2019-03-23T07:16:42.956Z,101559.17
2019-03-23T07:19:14.199Z,101560.36
2019-03-23T07:21:45.537Z,101558.80
2019-03-23T07:24:16.863Z,101561.50
2019-03-23T07:26:51.058Z,101563.55
2019-03-23T07:29:22.368Z,101565.42
2019-03-23T07:31:53.709Z,101569.08
2019-03-23T07:34:25.061Z,101561.86
2019-03-23T07:36:56.301Z,101567.64
2019-03-23T07:39:49.075Z,101561.15
2019-03-23T07:42:20.310Z,101560.22
2019-03-23T07:44:51.555Z,101567.47
2019-03-23T07:47:22.858Z,101569.49
2019-03-23T07:49:54.160Z,101577.33
2019-03-23T07:52:25.447Z,101579.91
2019-03-23T07:54:57.943Z,101582.00
2019-03-23T07:57:29.251Z,101584.66
2019-03-23T08:00:00.518Z,101586.67
2019-03-23T08:02:31.829Z,101588.98
2019-03-23T08:05:03.263Z,101581.02
2019-03-23T08:07:34.567Z,101588.48
2019-03-23T08:10:08.333Z,101588.41
2019-03-23T08:12:39.578Z,101596.84
2019-03-23T08:15:11.253Z,101591.86
2019-03-23T08:17:42.852Z,101587.98
2019-03-23T08:20:14.160Z,101599.34
2019-03-23T08:22:45.616Z,101593.16
2019-03-23T08:25:16.989Z,101597.05
2019-03-23T08:27:49.751Z,101586.68
2019-03-23T08:30:21.137Z,101589.94
2019-03-23T08:32:52.591Z,101594.39
2019-03-23T08:35:23.992Z,101599.73
2019-03-23T08:37:56.414Z,101599.14
2019-03-23T08:40:27.775Z,101601.20
2019-03-23T08:42:59.207Z,101601.26
2019-03-23T08:45:30.580Z,101591.72
2019-03-23T08:48:02.439Z,101596.83
2019-03-23T08:50:33.929Z,101586.77
2019-03-23T08:53:05.479Z,101586.36
2019-03-23T08:55:36.985Z,101587.38
2019-03-23T08:58:08.233Z,101586.91
2019-03-23T09:00:39.671Z,101589.11
2019-03-23T09:03:11.024Z,101594.28
2019-03-23T09:05:42.374Z,101595.67
2019-03-23T09:08:13.826Z,101594.84
2019-03-23T09:10:45.244Z,101591.38
2019-03-23T09:13:16.506Z,101597.61
2019-03-23T09:15:47.950Z,101598.65
2019-03-23T09:18:20.961Z,101588.88
2019-03-23T09:20:52.358Z,101591.07
2019-03-23T09:23:23.914Z,101589.28
2019-03-23T09:25:55.291Z,101582.59
2019-03-23T09:28:26.775Z,101589.24
2019-03-23T09:30:58.029Z,101588.33
2019-03-23T09:33:29.481Z,101592.28
2019-03-23T09:36:02.059Z,101587.31
2019-03-23T09:38:33.475Z,101592.60
2019-03-23T09:41:04.862Z,101589.47
2019-03-23T09:43:36.309Z,101586.73
2019-03-23T09:46:09.366Z,101591.99
2019-03-23T09:48:40.710Z,101586.75
2019-03-23T09:51:12.076Z,101573.47
2019-03-23T09:53:43.328Z,101579.98
2019-03-23T09:56:14.707Z,101583.32
2019-03-23T09:58:46.189Z,101577.92
2019-03-23T10:01:18.831Z,101581.39
2019-03-23T10:03:50.300Z,101582.13
2019-03-23T10:06:22.830Z,101577.94
2019-03-23T10:09:01.210Z,101579.13
2019-03-23T10:11:34.004Z,101574.18
2019-03-23T10:14:05.449Z,101577.00
2019-03-23T10:16:36.707Z,101575.05
2019-03-23T10:19:08.075Z,101576.64
2019-03-23T10:21:40.955Z,101567.94
2019-03-23T10:24:13.522Z,101565.03
2019-03-23T10:26:44.850Z,101568.39
2019-03-23T10:29:17.152Z,101564.50
2019-03-23T10:31:48.522Z,101560.75
2019-03-23T10:34:19.808Z,101550.77
2019-03-23T10:36:51.133Z,101555.31
2019-03-23T10:39:22.760Z,101563.39
2019-03-23T10:41:54.018Z,101554.19
2019-03-23T10:44:25.327Z,101557.45
2019-03-23T10:46:56.674Z,101557.52
2019-03-23T10:49:27.995Z,101549.22
2019-03-23T10:51:59.318Z,101555.95
2019-03-23T10:54:30.683Z,101541.03
2019-03-23T10:57:02.195Z,101543.36
2019-03-23T10:59:33.455Z,101541.17
2019-03-23T11:02:04.949Z,101534.58
2019-03-23T11:04:36.267Z,101539.53
2019-03-23T11:07:07.636Z,101532.91
2019-03-23T11:09:38.945Z,101536.08
2019-03-23T11:12:10.244Z,101531.63
2019-03-23T11:14:41.557Z,101526.77
2019-03-23T11:17:12.882Z,101523.21
2019-03-23T11:19:44.237Z,101521.42
2019-03-23T11:22:15.520Z,101527.63
2019-03-23T11:24:46.850Z,101523.18
2019-03-23T11:27:18.110Z,101524.05
2019-03-23T11:29:49.415Z,101520.47
2019-03-23T11:32:20.737Z,101520.89
2019-03-23T11:34:52.533Z,101520.84
2019-03-23T11:37:23.987Z,101509.19
2019-03-23T11:39:57.412Z,101522.13
2019-03-23T11:42:30.187Z,101520.38
2019-03-23T11:45:01.493Z,101519.41
2019-03-23T11:47:50.699Z,101517.66
2019-03-23T11:50:22.328Z,101526.66
2019-03-23T11:52:53.719Z,101521.65
2019-03-23T11:55:31.359Z,101514.48
2019-03-23T11:58:02.842Z,101517.56
2019-03-23T12:00:36.163Z,101513.86
2019-03-23T12:03:07.657Z,101519.52
2019-03-23T12:05:38.934Z,101514.53
2019-03-23T12:08:10.728Z,101512.65
2019-03-23T12:10:43.085Z,101514.19
2019-03-23T12:13:21.657Z,101514.19
2019-03-23T12:15:52.979Z,101510.38
2019-03-23T12:18:24.703Z,101513.05
2019-03-23T12:20:59.904Z,101513.98
2019-03-23T12:23:31.347Z,101508.31
2019-03-23T12:26:02.925Z,101500.67
2019-03-23T12:28:36.862Z,101500.86
2019-03-23T12:31:10.785Z,101494.39
2019-03-23T12:33:43.878Z,101488.88
2019-03-23T12:36:16.679Z,101483.36
2019-03-23T12:38:48.185Z,101488.84
2019-03-23T12:41:23.300Z,101484.89
2019-03-23T12:43:54.646Z,101478.61
2019-03-23T12:46:27.974Z,101476.58
2019-03-23T12:48:59.503Z,101478.14
2019-03-23T12:51:30.966Z,101472.19
2019-03-23T12:54:02.439Z,101472.89
2019-03-23T12:56:35.420Z,101468.53
2019-03-23T12:59:06.752Z,101467.24
2019-03-23T13:04:08.733Z,101465.92
2019-03-23T13:06:40.203Z,101464.69
2019-03-23T13:09:12.683Z,101471.47
2019-03-23T13:11:57.254Z,101461.48
2019-03-23T13:14:28.555Z,101458.65
2019-03-23T13:16:59.804Z,101455.55
2019-03-23T13:19:31.287Z,101450.20
2019-03-23T13:22:02.682Z,101459.20
2019-03-23T13:24:34.139Z,101455.41
2019-03-23T13:27:08.449Z,101455.81
2019-03-23T13:29:42.798Z,101451.22
2019-03-23T13:32:18.679Z,101445.64
2019-03-23T13:34:50.458Z,101437.90
2019-03-23T13:37:21.877Z,101433.89
2019-03-23T13:39:53.309Z,101430.92
2019-03-23T13:42:24.826Z,101431.48
2019-03-23T13:44:56.268Z,101438.45
2019-03-23T13:47:27.560Z,101430.55
2019-03-23T13:49:59.015Z,101430.77
2019-03-23T13:52:30.278Z,101423.49
2019-03-23T13:55:01.573Z,101420.61
2019-03-23T13:57:32.965Z,101419.70
2019-03-23T14:00:07.307Z,101410.13
2019-03-23T14:02:41.778Z,101413.15
2019-03-23T14:05:16.253Z,101408.45
2019-03-23T14:07:47.184Z,101411.69
2019-03-23T14:10:18.909Z,101405.64
2019-03-23T14:12:51.580Z,101408.66
2019-03-23T14:15:23.893Z,101407.56
2019-03-23T14:17:55.400Z,101401.27
2019-03-23T14:20:26.815Z,101405.08
2019-03-23T14:23:02.675Z,101398.53
2019-03-23T14:25:31.377Z,101396.86
2019-03-23T14:28:03.763Z,101399.66
2019-03-23T14:30:35.405Z,101403.80
2019-03-23T14:33:06.884Z,101395.49
2019-03-23T14:35:38.201Z,101393.16
2019-03-23T14:38:09.582Z,101393.64
2019-03-23T14:40:41.434Z,101396.23
2019-03-23T14:43:14.768Z,101387.38
2019-03-23T14:45:46.094Z,101385.77
2019-03-23T14:48:19.817Z,101383.50
2019-03-23T14:50:51.142Z,101385.87
2019-03-23T14:53:24.573Z,101386.56
2019-03-23T14:55:56.296Z,101385.24
2019-03-23T15:00:04.362Z,101388.48
2019-03-23T15:02:24.096Z,101383.32
2019-03-23T15:04:55.658Z,101378.04
2019-03-23T15:07:27.310Z,101381.07
2019-03-23T15:10:00.411Z,101381.59
2019-03-23T15:12:37.540Z,101380.88
2019-03-23T15:15:09.744Z,101380.61
2019-03-23T15:17:48.734Z,101384.62
2019-03-23T15:20:16.359Z,101379.83
2019-03-23T15:22:47.853Z,101383.97
2019-03-23T15:25:19.713Z,101379.27
2019-03-23T15:27:51.046Z,101382.84
2019-03-23T15:30:22.875Z,101380.97
2019-03-23T15:32:55.270Z,101377.06
2019-03-23T15:35:26.663Z,101371.66
2019-03-23T15:37:58.917Z,101374.42
2019-03-23T15:40:31.658Z,101375.50
2019-03-23T15:43:03.056Z,101379.10
2019-03-23T15:45:36.387Z,101375.94
2019-03-23T15:48:07.758Z,101379.87
2019-03-23T15:50:39.204Z,101376.64
2019-03-23T15:53:10.566Z,101375.80
2019-03-23T15:55:42.023Z,101376.11
2019-03-23T15:58:13.539Z,101376.23
2019-03-23T16:00:48.244Z,101372.75
2019-03-23T16:03:19.699Z,101372.37
2019-03-23T16:05:51.143Z,101376.23
2019-03-23T16:08:24.013Z,101371.08
2019-03-23T16:10:55.707Z,101374.43
2019-03-23T16:13:27.207Z,101380.09
2019-03-23T16:15:58.595Z,101388.39
2019-03-23T16:18:30.199Z,101386.86
2019-03-23T16:21:01.656Z,101399.23
2019-03-23T16:23:33.119Z,101399.91
2019-03-23T16:26:04.689Z,101410.64
2019-03-23T16:28:36.065Z,101415.67
2019-03-23T16:31:07.481Z,101414.01
2019-03-23T16:33:39.213Z,101413.58
2019-03-23T16:36:12.455Z,101426.53
2019-03-23T16:38:45.430Z,101431.89
2019-03-23T16:41:16.725Z,101430.97
2019-03-23T16:43:49.636Z,101429.14
2019-03-23T16:46:21.083Z,101435.34
2019-03-23T16:48:52.409Z,101433.92
2019-03-23T16:51:24.110Z,101439.66
2019-03-23T16:53:55.653Z,101444.33
2019-03-23T16:56:28.542Z,101450.02
2019-03-23T16:58:59.977Z,101452.69
2019-03-23T17:01:31.398Z,101455.16
2019-03-23T17:04:02.691Z,101459.50
2019-03-23T17:06:34.816Z,101454.43
2019-03-23T17:09:06.995Z,101464.72
2019-03-23T17:11:38.610Z,101461.13
2019-03-23T17:14:09.931Z,101456.11
2019-03-23T17:16:42.951Z,101452.94
2019-03-23T17:19:15.854Z,101455.97
2019-03-23T17:21:47.291Z,101456.73
2019-03-23T17:24:18.766Z,101466.16
2019-03-23T17:26:50.791Z,101471.89
2019-03-23T17:29:25.618Z,101463.08
2019-03-23T17:31:57.221Z,101465.84
2019-03-23T17:34:30.550Z,101471.41
2019-03-23T17:37:03.174Z,101476.68
2019-03-23T17:39:36.606Z,101476.87
2019-03-23T17:42:08.282Z,101486.88
2019-03-23T17:44:42.165Z,101493.86
2019-03-23T17:47:13.776Z,101491.51
2019-03-23T17:49:47.202Z,101490.97
2019-03-23T17:52:18.661Z,101496.14
2019-03-23T17:54:49.982Z,101498.59
2019-03-23T17:57:23.069Z,101506.77
2019-03-23T17:59:54.512Z,101503.92
2019-03-23T18:02:38.318Z,101505.55
2019-03-23T18:05:12.421Z,101514.42
2019-03-23T18:07:44.093Z,101511.02
2019-03-23T18:10:15.783Z,101518.99
2019-03-23T18:12:47.319Z,101521.00
2019-03-23T18:15:18.790Z,101520.80
2019-03-23T18:17:51.259Z,101523.20
2019-03-23T18:20:22.903Z,101527.09
2019-03-23T18:22:54.297Z,101523.34
2019-03-23T18:25:25.747Z,101528.20
2019-03-23T18:27:57.117Z,101536.07
2019-03-23T18:30:43.414Z,101532.81
2019-03-23T18:33:14.867Z,101539.70
2019-03-23T18:35:46.206Z,101541.88
2019-03-23T18:38:17.830Z,101538.34
2019-03-23T18:40:49.989Z,101545.97
2019-03-23T18:43:27.353Z,101552.59
2019-03-23T18:45:54.532Z,101550.64
2019-03-23T18:48:25.866Z,101556.87
2019-03-23T18:50:57.326Z,101555.02
2019-03-23T18:53:28.709Z,101559.98
2019-03-23T18:56:00.490Z,101561.18
2019-03-23T18:58:32.091Z,101568.48
2019-03-23T19:01:03.686Z,101572.83
2019-03-23T19:03:35.149Z,101573.98
2019-03-23T19:06:06.622Z,101570.27
2019-03-23T19:08:38.151Z,101575.39
2019-03-23T19:11:15.025Z,101571.25
2019-03-23T19:13:46.704Z,101575.64
2019-03-23T19:16:18.946Z,101576.78
2019-03-23T19:18:50.430Z,101570.84
2019-03-23T19:21:21.678Z,101575.70
2019-03-23T19:23:53.321Z,101574.77
2019-03-23T19:26:25.036Z,101577.27
2019-03-23T19:28:56.594Z,101576.33
2019-03-23T19:31:28.052Z,101583.27
2019-03-23T19:33:59.345Z,101578.83
2019-03-23T19:36:30.658Z,101575.30
2019-03-23T19:39:07.460Z,101580.06
2019-03-23T19:41:38.934Z,101584.45
2019-03-23T19:44:10.380Z,101578.98
2019-03-23T19:46:41.684Z,101582.00
2019-03-23T19:49:14.780Z,101574.92
2019-03-23T19:51:46.014Z,101578.42
2019-03-23T19:54:17.424Z,101579.22
2019-03-23T19:56:48.771Z,101580.53
2019-03-23T19:59:21.709Z,101576.53
2019-03-23T20:01:52.958Z,101573.80
2019-03-23T20:04:24.485Z,101572.95
2019-03-23T20:06:55.790Z,101582.09
2019-03-23T20:09:27.198Z,101580.30
2019-03-23T20:11:58.534Z,101580.25
2019-03-23T20:14:29.953Z,101575.30
2019-03-23T20:17:01.395Z,101588.08
2019-03-23T20:19:33.296Z,101579.22
2019-03-23T20:22:04.707Z,101577.84
2019-03-23T20:24:37.134Z,101579.59
2019-03-23T20:27:08.458Z,101584.88
2019-03-23T20:29:39.894Z,101575.95
2019-03-23T20:32:11.306Z,101572.37
2019-03-23T20:34:42.683Z,101578.50
2019-03-23T20:37:14.275Z,101578.50
2019-03-23T20:39:47.631Z,101578.50
2019-03-23T20:42:19.851Z,101583.22
2019-03-23T20:44:51.143Z,101580.58
2019-03-23T20:47:22.898Z,101577.41
2019-03-23T20:49:54.516Z,101582.13
2019-03-23T20:52:25.974Z,101579.91
2019-03-23T20:54:57.530Z,101589.94
2019-03-23T20:57:37.710Z,101581.08
2019-03-23T21:00:09.563Z,101583.20
2019-03-23T21:02:40.872Z,101576.97
2019-03-23T21:05:12.677Z,101581.35
2019-03-23T21:07:44.272Z,101578.19
2019-03-23T21:10:15.839Z,101576.81
2019-03-23T21:12:48.570Z,101571.44
2019-03-23T21:15:21.481Z,101577.05
2019-03-23T21:17:52.966Z,101574.03
2019-03-23T21:20:25.978Z,101565.22
2019-03-23T21:22:57.234Z,101576.14
2019-03-23T21:25:28.666Z,101569.07
2019-03-23T21:27:59.957Z,101572.98
2019-03-23T21:30:31.339Z,101571.90
2019-03-23T21:33:02.677Z,101565.58
2019-03-23T21:35:33.980Z,101568.63
2019-03-23T21:38:05.483Z,101564.63
2019-03-23T21:40:37.013Z,101565.42
2019-03-23T21:43:08.478Z,101561.41
2019-03-23T21:45:39.839Z,101564.42
2019-03-23T21:48:11.078Z,101560.36
2019-03-23T21:50:47.476Z,101555.45
2019-03-23T21:53:15.331Z,101552.66
2019-03-23T21:55:46.751Z,101556.98
2019-03-23T21:58:18.059Z,101556.83
2019-03-23T22:00:49.443Z,101550.66
2019-03-23T22:03:20.681Z,101549.23
2019-03-23T22:05:52.058Z,101544.38
2019-03-23T22:08:23.435Z,101540.27
2019-03-23T22:10:54.796Z,101538.84
2019-03-23T22:13:26.079Z,101535.21
2019-03-23T22:15:57.465Z,101533.00
2019-03-23T22:18:28.713Z,101535.16
2019-03-23T22:21:00.087Z,101530.25
2019-03-23T22:23:32.493Z,101527.09
2019-03-23T22:26:03.774Z,101526.03
2019-03-23T22:28:36.098Z,101523.34
2019-03-23T22:31:07.563Z,101518.07
2019-03-23T22:33:38.851Z,101528.67
2019-03-23T22:36:10.224Z,101519.76
2019-03-23T22:38:41.966Z,101521.97
2019-03-23T22:41:13.331Z,101521.50
2019-03-23T22:43:44.755Z,101517.86
2019-03-23T22:46:16.034Z,101518.23
2019-03-23T22:48:47.501Z,101513.38
2019-03-23T22:51:19.022Z,101511.90
2019-03-23T22:53:55.195Z,101514.17
2019-03-23T22:56:25.981Z,101511.53
2019-03-23T22:58:57.223Z,101500.94
2019-03-23T23:01:28.590Z,101498.35
2019-03-23T23:04:00.098Z,101497.45
2019-03-23T23:06:31.519Z,101496.56
2019-03-23T23:09:02.831Z,101494.29
2019-03-23T23:11:35.206Z,101495.47
2019-03-23T23:14:06.652Z,101495.94
2019-03-23T23:16:38.012Z,101488.45
2019-03-23T23:19:09.251Z,101486.61
2019-03-23T23:21:40.625Z,101484.87
2019-03-23T23:24:11.866Z,101484.39
2019-03-23T23:26:43.226Z,101483.92
2019-03-23T23:29:14.537Z,101488.19
2019-03-23T23:31:45.901Z,101485.92
2019-03-23T23:34:17.212Z,101482.34
2019-03-23T23:36:48.618Z,101481.75
2019-03-23T23:39:20.924Z,101483.86
2019-03-23T23:41:52.276Z,101486.02
2019-03-23T23:44:23.585Z,101482.44
2019-03-23T23:46:54.968Z,101477.58
2019-03-23T23:49:26.324Z,101476.21
2019-03-23T23:51:57.634Z,101477.90
2019-03-23T23:54:28.928Z,101479.53
2019-03-23T23:57:00.351Z,101477.26
2019-03-23T23:59:31.753Z,101473.25
